sensor_id;sensor_type;location;lat;lon;timestamp;temperature;humidity
60473;DHT22;46318;52.716;6.444;2023-03-30T00:00:57;11.30;99.90
60473;DHT22;46318;52.716;6.444;2023-03-30T00:03:24;11.40;99.90
60473;DHT22;46318;52.716;6.444;2023-03-30T00:05:52;11.40;99.90
60473;DHT22;46318;52.716;6.444;2023-03-30T00:08:24;11.40;99.90
60473;DHT22;46318;52.716;6.444;2023-03-30T00:11:05;11.40;99.90
60473;DHT22;46318;52.716;6.444;2023-03-30T00:13:33;11.40;99.90
60473;DHT22;46318;52.716;6.444;2023-03-30T00:16:01;11.40;99.90
60473;DHT22;46318;52.716;6.444;2023-03-30T00:18:28;11.40;99.90
60473;DHT22;46318;52.716;6.444;2023-03-30T00:20:58;11.40;99.90
60473;DHT22;46318;52.716;6.444;2023-03-30T00:23:24;11.40;99.90
60473;DHT22;46318;52.716;6.444;2023-03-30T00:25:51;11.40;99.90
60473;DHT22;46318;52.716;6.444;2023-03-30T00:28:17;11.40;99.90
60473;DHT22;46318;52.716;6.444;2023-03-30T00:30:43;11.40;99.90
60473;DHT22;46318;52.716;6.444;2023-03-30T00:33:08;11.40;99.90
60473;DHT22;46318;52.716;6.444;2023-03-30T00:35:34;11.40;99.90
60473;DHT22;46318;52.716;6.444;2023-03-30T00:38:00;11.40;99.90
60473;DHT22;46318;52.716;6.444;2023-03-30T00:40:28;11.40;99.90
60473;DHT22;46318;52.716;6.444;2023-03-30T00:43:04;11.40;99.90
60473;DHT22;46318;52.716;6.444;2023-03-30T00:45:35;11.40;99.90
60473;DHT22;46318;52.716;6.444;2023-03-30T00:48:18;11.40;99.90
60473;DHT22;46318;52.716;6.444;2023-03-30T00:51:01;11.40;99.90
60473;DHT22;46318;52.716;6.444;2023-03-30T00:53:34;11.40;99.90
60473;DHT22;46318;52.716;6.444;2023-03-30T00:56:05;11.40;99.90
60473;DHT22;46318;52.716;6.444;2023-03-30T00:58:32;11.40;99.90
60473;DHT22;46318;52.716;6.444;2023-03-30T01:01:02;11.40;99.90
60473;DHT22;46318;52.716;6.444;2023-03-30T01:03:39;11.40;99.90
60473;DHT22;46318;52.716;6.444;2023-03-30T01:06:14;11.40;99.90
60473;DHT22;46318;52.716;6.444;2023-03-30T01:08:46;11.40;99.90
60473;DHT22;46318;52.716;6.444;2023-03-30T01:11:12;11.40;99.90
60473;DHT22;46318;52.716;6.444;2023-03-30T01:13:44;11.40;99.90
60473;DHT22;46318;52.716;6.444;2023-03-30T01:22:47;11.40;99.90
60473;DHT22;46318;52.716;6.444;2023-03-30T01:37:45;11.50;99.90
60473;DHT22;46318;52.716;6.444;2023-03-30T01:43:50;11.50;99.90
60473;DHT22;46318;52.716;6.444;2023-03-30T01:46:43;11.50;99.90
60473;DHT22;46318;52.716;6.444;2023-03-30T01:49:24;11.50;99.90
60473;DHT22;46318;52.716;6.444;2023-03-30T01:52:05;11.50;99.90
60473;DHT22;46318;52.716;6.444;2023-03-30T01:55:17;11.50;99.90
60473;DHT22;46318;52.716;6.444;2023-03-30T02:00:40;11.50;99.90
60473;DHT22;46318;52.716;6.444;2023-03-30T02:03:14;11.50;99.90
60473;DHT22;46318;52.716;6.444;2023-03-30T02:05:46;11.50;99.90
60473;DHT22;46318;52.716;6.444;2023-03-30T02:08:18;11.50;99.90
60473;DHT22;46318;52.716;6.444;2023-03-30T02:10:47;11.60;99.90
60473;DHT22;46318;52.716;6.444;2023-03-30T02:13:14;11.60;99.90
60473;DHT22;46318;52.716;6.444;2023-03-30T02:15:43;11.60;99.90
60473;DHT22;46318;52.716;6.444;2023-03-30T02:18:12;11.60;99.90
60473;DHT22;46318;52.716;6.444;2023-03-30T02:20:38;11.60;99.90
60473;DHT22;46318;52.716;6.444;2023-03-30T02:23:05;11.60;99.90
60473;DHT22;46318;52.716;6.444;2023-03-30T02:25:33;11.60;99.90
60473;DHT22;46318;52.716;6.444;2023-03-30T02:28:01;11.60;99.90
60473;DHT22;46318;52.716;6.444;2023-03-30T02:30:32;11.70;99.90
60473;DHT22;46318;52.716;6.444;2023-03-30T02:32:59;11.70;99.90
60473;DHT22;46318;52.716;6.444;2023-03-30T02:44:20;11.80;99.90
60473;DHT22;46318;52.716;6.444;2023-03-30T02:47:19;11.80;99.90
60473;DHT22;46318;52.716;6.444;2023-03-30T02:50:03;11.90;99.90
60473;DHT22;46318;52.716;6.444;2023-03-30T02:55:24;11.80;99.90
60473;DHT22;46318;52.716;6.444;2023-03-30T02:58:08;11.80;99.90
60473;DHT22;46318;52.716;6.444;2023-03-30T03:00:58;11.80;99.90
60473;DHT22;46318;52.716;6.444;2023-03-30T03:03:35;11.90;99.90
60473;DHT22;46318;52.716;6.444;2023-03-30T03:06:07;11.80;99.90
60473;DHT22;46318;52.716;6.444;2023-03-30T03:08:38;11.80;99.90
60473;DHT22;46318;52.716;6.444;2023-03-30T03:11:05;11.80;99.90
60473;DHT22;46318;52.716;6.444;2023-03-30T03:13:35;11.80;99.90
60473;DHT22;46318;52.716;6.444;2023-03-30T03:16:03;11.80;99.90
60473;DHT22;46318;52.716;6.444;2023-03-30T03:18:29;11.80;99.90
60473;DHT22;46318;52.716;6.444;2023-03-30T03:20:59;11.80;99.90
60473;DHT22;46318;52.716;6.444;2023-03-30T03:23:25;11.80;99.90
60473;DHT22;46318;52.716;6.444;2023-03-30T03:25:51;11.80;99.90
60473;DHT22;46318;52.716;6.444;2023-03-30T03:28:17;11.80;99.90
60473;DHT22;46318;52.716;6.444;2023-03-30T03:30:43;11.90;99.90
60473;DHT22;46318;52.716;6.444;2023-03-30T03:33:09;11.80;99.90
60473;DHT22;46318;52.716;6.444;2023-03-30T03:35:35;11.90;99.90
60473;DHT22;46318;52.716;6.444;2023-03-30T03:38:04;11.90;99.90
60473;DHT22;46318;52.716;6.444;2023-03-30T03:40:31;11.90;99.90
60473;DHT22;46318;52.716;6.444;2023-03-30T03:42:57;11.90;99.90
60473;DHT22;46318;52.716;6.444;2023-03-30T03:45:23;12.00;99.90
60473;DHT22;46318;52.716;6.444;2023-03-30T03:47:50;12.00;99.90
60473;DHT22;46318;52.716;6.444;2023-03-30T03:50:16;12.00;99.90
60473;DHT22;46318;52.716;6.444;2023-03-30T03:52:43;12.00;99.90
60473;DHT22;46318;52.716;6.444;2023-03-30T03:55:09;12.00;99.90
60473;DHT22;46318;52.716;6.444;2023-03-30T03:57:35;12.00;99.90
60473;DHT22;46318;52.716;6.444;2023-03-30T04:00:03;12.00;99.90
60473;DHT22;46318;52.716;6.444;2023-03-30T04:02:40;12.00;99.90
60473;DHT22;46318;52.716;6.444;2023-03-30T04:05:07;12.00;99.90
60473;DHT22;46318;52.716;6.444;2023-03-30T04:07:33;12.00;99.90
60473;DHT22;46318;52.716;6.444;2023-03-30T04:10:05;12.00;99.90
60473;DHT22;46318;52.716;6.444;2023-03-30T04:12:32;12.00;99.90
60473;DHT22;46318;52.716;6.444;2023-03-30T04:14:58;12.00;99.90
60473;DHT22;46318;52.716;6.444;2023-03-30T04:17:23;12.00;99.90
60473;DHT22;46318;52.716;6.444;2023-03-30T04:19:51;12.00;99.90
60473;DHT22;46318;52.716;6.444;2023-03-30T04:22:20;12.00;99.90
60473;DHT22;46318;52.716;6.444;2023-03-30T04:24:49;12.00;99.90
60473;DHT22;46318;52.716;6.444;2023-03-30T04:27:15;12.00;99.90
60473;DHT22;46318;52.716;6.444;2023-03-30T04:29:42;12.00;99.90
60473;DHT22;46318;52.716;6.444;2023-03-30T04:32:12;12.00;99.90
60473;DHT22;46318;52.716;6.444;2023-03-30T04:34:38;12.00;99.90
60473;DHT22;46318;52.716;6.444;2023-03-30T04:37:11;11.90;99.90
60473;DHT22;46318;52.716;6.444;2023-03-30T04:39:43;12.00;99.90
60473;DHT22;46318;52.716;6.444;2023-03-30T04:42:09;12.00;99.90
60473;DHT22;46318;52.716;6.444;2023-03-30T04:44:39;11.90;99.90
60473;DHT22;46318;52.716;6.444;2023-03-30T04:47:05;12.00;99.90
60473;DHT22;46318;52.716;6.444;2023-03-30T04:49:31;11.90;99.90
60473;DHT22;46318;52.716;6.444;2023-03-30T04:51:57;12.00;99.90
60473;DHT22;46318;52.716;6.444;2023-03-30T04:54:23;11.90;99.90
60473;DHT22;46318;52.716;6.444;2023-03-30T04:56:49;11.90;99.90
60473;DHT22;46318;52.716;6.444;2023-03-30T04:59:15;11.90;99.90
60473;DHT22;46318;52.716;6.444;2023-03-30T05:01:41;11.90;99.90
60473;DHT22;46318;52.716;6.444;2023-03-30T05:04:07;11.90;99.90
60473;DHT22;46318;52.716;6.444;2023-03-30T05:06:33;11.90;99.90
60473;DHT22;46318;52.716;6.444;2023-03-30T05:08:59;12.00;99.90
60473;DHT22;46318;52.716;6.444;2023-03-30T05:11:25;11.90;99.90
60473;DHT22;46318;52.716;6.444;2023-03-30T05:13:52;11.90;99.90
60473;DHT22;46318;52.716;6.444;2023-03-30T05:16:19;11.90;99.90
60473;DHT22;46318;52.716;6.444;2023-03-30T05:18:46;11.90;99.90
60473;DHT22;46318;52.716;6.444;2023-03-30T05:21:12;11.90;99.90
60473;DHT22;46318;52.716;6.444;2023-03-30T05:23:38;11.90;99.90
60473;DHT22;46318;52.716;6.444;2023-03-30T05:26:05;12.00;99.90
60473;DHT22;46318;52.716;6.444;2023-03-30T05:28:32;12.00;99.90
60473;DHT22;46318;52.716;6.444;2023-03-30T05:30:58;12.00;99.90
60473;DHT22;46318;52.716;6.444;2023-03-30T05:33:24;12.00;99.90
60473;DHT22;46318;52.716;6.444;2023-03-30T05:35:50;12.00;99.90
60473;DHT22;46318;52.716;6.444;2023-03-30T05:38:16;12.00;99.90
60473;DHT22;46318;52.716;6.444;2023-03-30T05:40:42;12.00;99.90
60473;DHT22;46318;52.716;6.444;2023-03-30T05:43:09;12.00;99.90
60473;DHT22;46318;52.716;6.444;2023-03-30T05:45:35;12.00;99.90
60473;DHT22;46318;52.716;6.444;2023-03-30T05:48:01;12.00;99.90
60473;DHT22;46318;52.716;6.444;2023-03-30T05:50:27;12.00;99.90
60473;DHT22;46318;52.716;6.444;2023-03-30T05:52:53;12.00;99.90
60473;DHT22;46318;52.716;6.444;2023-03-30T05:55:19;12.10;99.90
60473;DHT22;46318;52.716;6.444;2023-03-30T05:57:45;12.10;99.90
60473;DHT22;46318;52.716;6.444;2023-03-30T06:00:12;12.10;99.90
60473;DHT22;46318;52.716;6.444;2023-03-30T06:02:39;12.10;99.90
60473;DHT22;46318;52.716;6.444;2023-03-30T06:05:05;12.10;99.90
60473;DHT22;46318;52.716;6.444;2023-03-30T06:07:33;12.10;99.90
60473;DHT22;46318;52.716;6.444;2023-03-30T06:09:58;12.10;99.90
60473;DHT22;46318;52.716;6.444;2023-03-30T06:12:26;12.20;99.90
60473;DHT22;46318;52.716;6.444;2023-03-30T06:14:51;12.20;99.90
60473;DHT22;46318;52.716;6.444;2023-03-30T06:17:17;12.20;99.90
60473;DHT22;46318;52.716;6.444;2023-03-30T06:19:43;12.20;99.90
60473;DHT22;46318;52.716;6.444;2023-03-30T06:22:09;12.20;99.90
60473;DHT22;46318;52.716;6.444;2023-03-30T06:24:35;12.20;99.90
60473;DHT22;46318;52.716;6.444;2023-03-30T06:27:01;12.20;99.90
60473;DHT22;46318;52.716;6.444;2023-03-30T06:29:28;12.30;99.90
60473;DHT22;46318;52.716;6.444;2023-03-30T06:31:55;12.30;99.90
60473;DHT22;46318;52.716;6.444;2023-03-30T06:34:21;12.30;99.90
60473;DHT22;46318;52.716;6.444;2023-03-30T06:36:47;12.30;99.90
60473;DHT22;46318;52.716;6.444;2023-03-30T06:39:13;12.30;99.90
60473;DHT22;46318;52.716;6.444;2023-03-30T06:41:39;12.30;99.90
60473;DHT22;46318;52.716;6.444;2023-03-30T06:44:05;12.30;99.90
60473;DHT22;46318;52.716;6.444;2023-03-30T06:46:35;12.30;99.90
60473;DHT22;46318;52.716;6.444;2023-03-30T06:49:01;12.30;99.90
60473;DHT22;46318;52.716;6.444;2023-03-30T06:51:27;12.30;99.90
60473;DHT22;46318;52.716;6.444;2023-03-30T06:53:53;12.30;99.90
60473;DHT22;46318;52.716;6.444;2023-03-30T06:56:19;12.30;99.90
60473;DHT22;46318;52.716;6.444;2023-03-30T06:58:45;12.30;99.90
60473;DHT22;46318;52.716;6.444;2023-03-30T07:01:12;12.30;99.90
60473;DHT22;46318;52.716;6.444;2023-03-30T07:03:40;12.30;99.90
60473;DHT22;46318;52.716;6.444;2023-03-30T07:06:07;12.30;99.90
60473;DHT22;46318;52.716;6.444;2023-03-30T07:08:35;12.30;99.90
60473;DHT22;46318;52.716;6.444;2023-03-30T07:11:03;12.40;99.90
60473;DHT22;46318;52.716;6.444;2023-03-30T07:13:29;12.40;99.90
60473;DHT22;46318;52.716;6.444;2023-03-30T07:15:55;12.40;99.90
60473;DHT22;46318;52.716;6.444;2023-03-30T07:18:21;12.40;99.90
60473;DHT22;46318;52.716;6.444;2023-03-30T07:20:47;12.40;99.90
60473;DHT22;46318;52.716;6.444;2023-03-30T07:23:13;12.40;99.90
60473;DHT22;46318;52.716;6.444;2023-03-30T07:25:39;12.40;99.90
60473;DHT22;46318;52.716;6.444;2023-03-30T07:28:06;12.40;99.90
60473;DHT22;46318;52.716;6.444;2023-03-30T07:30:33;12.40;99.90
60473;DHT22;46318;52.716;6.444;2023-03-30T07:32:59;12.50;99.90
60473;DHT22;46318;52.716;6.444;2023-03-30T07:35:26;12.40;99.90
60473;DHT22;46318;52.716;6.444;2023-03-30T07:37:52;12.50;99.90
60473;DHT22;46318;52.716;6.444;2023-03-30T07:40:19;12.50;99.90
60473;DHT22;46318;52.716;6.444;2023-03-30T07:42:46;12.40;99.90
60473;DHT22;46318;52.716;6.444;2023-03-30T07:45:12;12.40;99.90
60473;DHT22;46318;52.716;6.444;2023-03-30T07:47:39;12.50;99.90
60473;DHT22;46318;52.716;6.444;2023-03-30T07:50:06;12.50;99.90
60473;DHT22;46318;52.716;6.444;2023-03-30T07:52:33;12.50;99.90
60473;DHT22;46318;52.716;6.444;2023-03-30T07:54:59;12.50;99.90
60473;DHT22;46318;52.716;6.444;2023-03-30T07:57:25;12.50;99.90
60473;DHT22;46318;52.716;6.444;2023-03-30T07:59:51;12.50;99.90
60473;DHT22;46318;52.716;6.444;2023-03-30T08:02:17;12.50;99.90
60473;DHT22;46318;52.716;6.444;2023-03-30T08:04:43;12.50;99.90
60473;DHT22;46318;52.716;6.444;2023-03-30T08:07:10;12.50;99.90
60473;DHT22;46318;52.716;6.444;2023-03-30T08:09:36;12.50;99.90
60473;DHT22;46318;52.716;6.444;2023-03-30T08:12:02;12.50;99.90
60473;DHT22;46318;52.716;6.444;2023-03-30T08:14:28;12.50;99.90
60473;DHT22;46318;52.716;6.444;2023-03-30T08:16:55;12.50;99.90
60473;DHT22;46318;52.716;6.444;2023-03-30T08:19:23;12.40;99.90
60473;DHT22;46318;52.716;6.444;2023-03-30T08:21:49;12.40;99.90
60473;DHT22;46318;52.716;6.444;2023-03-30T08:24:18;12.50;99.90
60473;DHT22;46318;52.716;6.444;2023-03-30T08:26:44;12.50;99.90
60473;DHT22;46318;52.716;6.444;2023-03-30T08:29:10;12.50;99.90
60473;DHT22;46318;52.716;6.444;2023-03-30T08:31:37;12.40;99.90
60473;DHT22;46318;52.716;6.444;2023-03-30T08:34:03;12.40;99.90
60473;DHT22;46318;52.716;6.444;2023-03-30T08:36:30;12.30;99.90
60473;DHT22;46318;52.716;6.444;2023-03-30T08:38:56;12.30;99.90
60473;DHT22;46318;52.716;6.444;2023-03-30T08:44:33;12.30;99.90
60473;DHT22;46318;52.716;6.444;2023-03-30T08:47:03;12.30;99.90
60473;DHT22;46318;52.716;6.444;2023-03-30T08:49:38;12.30;99.90
60473;DHT22;46318;52.716;6.444;2023-03-30T08:52:24;12.30;99.90
60473;DHT22;46318;52.716;6.444;2023-03-30T08:54:50;12.30;99.90
60473;DHT22;46318;52.716;6.444;2023-03-30T08:57:20;12.30;99.90
60473;DHT22;46318;52.716;6.444;2023-03-30T09:02:48;12.50;99.90
60473;DHT22;46318;52.716;6.444;2023-03-30T09:05:29;12.50;99.90
60473;DHT22;46318;52.716;6.444;2023-03-30T09:08:03;12.70;99.90
60473;DHT22;46318;52.716;6.444;2023-03-30T09:10:40;12.70;99.90
60473;DHT22;46318;52.716;6.444;2023-03-30T09:13:12;12.80;99.90
60473;DHT22;46318;52.716;6.444;2023-03-30T09:15:48;12.80;99.90
60473;DHT22;46318;52.716;6.444;2023-03-30T09:18:36;12.80;99.90
60473;DHT22;46318;52.716;6.444;2023-03-30T09:21:04;12.80;99.90
60473;DHT22;46318;52.716;6.444;2023-03-30T09:23:31;12.80;99.90
60473;DHT22;46318;52.716;6.444;2023-03-30T09:26:22;12.80;99.90
60473;DHT22;46318;52.716;6.444;2023-03-30T09:29:08;12.80;99.90
60473;DHT22;46318;52.716;6.444;2023-03-30T09:31:44;12.80;99.90
60473;DHT22;46318;52.716;6.444;2023-03-30T09:37:03;12.80;99.90
60473;DHT22;46318;52.716;6.444;2023-03-30T09:39:33;12.80;99.90
60473;DHT22;46318;52.716;6.444;2023-03-30T09:45:06;12.80;99.90
60473;DHT22;46318;52.716;6.444;2023-03-30T09:47:40;12.80;99.90
60473;DHT22;46318;52.716;6.444;2023-03-30T09:50:15;12.90;99.90
60473;DHT22;46318;52.716;6.444;2023-03-30T09:52:56;12.90;99.90
60473;DHT22;46318;52.716;6.444;2023-03-30T09:58:27;13.10;99.90
60473;DHT22;46318;52.716;6.444;2023-03-30T10:01:08;13.10;99.90
60473;DHT22;46318;52.716;6.444;2023-03-30T10:03:37;13.10;99.90
60473;DHT22;46318;52.716;6.444;2023-03-30T10:06:09;13.10;99.90
60473;DHT22;46318;52.716;6.444;2023-03-30T10:08:54;13.10;99.90
60473;DHT22;46318;52.716;6.444;2023-03-30T10:11:40;13.20;99.90
60473;DHT22;46318;52.716;6.444;2023-03-30T10:14:35;13.10;99.90
60473;DHT22;46318;52.716;6.444;2023-03-30T10:17:03;13.10;99.90
60473;DHT22;46318;52.716;6.444;2023-03-30T10:19:32;13.20;99.90
60473;DHT22;46318;52.716;6.444;2023-03-30T10:22:01;13.20;99.90
60473;DHT22;46318;52.716;6.444;2023-03-30T10:24:31;13.20;99.90
60473;DHT22;46318;52.716;6.444;2023-03-30T10:27:10;13.30;99.90
60473;DHT22;46318;52.716;6.444;2023-03-30T10:29:37;13.30;99.90
60473;DHT22;46318;52.716;6.444;2023-03-30T10:32:20;13.40;99.90
60473;DHT22;46318;52.716;6.444;2023-03-30T10:34:52;13.40;99.90
60473;DHT22;46318;52.716;6.444;2023-03-30T10:37:32;13.50;99.90
60473;DHT22;46318;52.716;6.444;2023-03-30T10:40:02;13.50;99.90
60473;DHT22;46318;52.716;6.444;2023-03-30T10:42:36;13.50;99.90
60473;DHT22;46318;52.716;6.444;2023-03-30T10:45:04;13.60;99.90
60473;DHT22;46318;52.716;6.444;2023-03-30T10:52:57;13.70;99.90
60473;DHT22;46318;52.716;6.444;2023-03-30T11:05:12;13.90;99.90
60473;DHT22;46318;52.716;6.444;2023-03-30T11:07:47;14.10;99.90
60473;DHT22;46318;52.716;6.444;2023-03-30T11:10:36;14.10;99.90
60473;DHT22;46318;52.716;6.444;2023-03-30T11:13:32;14.10;99.90
60473;DHT22;46318;52.716;6.444;2023-03-30T11:16:04;14.20;99.80
60473;DHT22;46318;52.716;6.444;2023-03-30T11:18:36;14.20;99.90
60473;DHT22;46318;52.716;6.444;2023-03-30T11:21:50;14.20;99.90
60473;DHT22;46318;52.716;6.444;2023-03-30T11:24:23;14.30;99.90
60473;DHT22;46318;52.716;6.444;2023-03-30T11:27:16;14.30;99.90
60473;DHT22;46318;52.716;6.444;2023-03-30T11:29:52;14.30;99.30
60473;DHT22;46318;52.716;6.444;2023-03-30T11:35:46;14.20;99.90
60473;DHT22;46318;52.716;6.444;2023-03-30T11:40:57;14.20;99.90
60473;DHT22;46318;52.716;6.444;2023-03-30T11:43:29;14.20;99.90
60473;DHT22;46318;52.716;6.444;2023-03-30T11:58:02;14.70;99.90
60473;DHT22;46318;52.716;6.444;2023-03-30T12:03:43;14.70;99.00
60473;DHT22;46318;52.716;6.444;2023-03-30T12:09:30;14.60;98.00
60473;DHT22;46318;52.716;6.444;2023-03-30T12:12:15;14.60;98.00
60473;DHT22;46318;52.716;6.444;2023-03-30T12:17:46;14.60;97.90
60473;DHT22;46318;52.716;6.444;2023-03-30T12:23:45;14.50;96.70
60473;DHT22;46318;52.716;6.444;2023-03-30T12:31:18;14.50;96.90
60473;DHT22;46318;52.716;6.444;2023-03-30T12:33:49;14.50;97.80
60473;DHT22;46318;52.716;6.444;2023-03-30T12:36:30;14.50;97.90
60473;DHT22;46318;52.716;6.444;2023-03-30T12:39:00;14.50;97.90
60473;DHT22;46318;52.716;6.444;2023-03-30T12:41:39;14.60;98.00
60473;DHT22;46318;52.716;6.444;2023-03-30T12:44:29;14.60;98.10
60473;DHT22;46318;52.716;6.444;2023-03-30T12:50:37;14.70;98.20
60473;DHT22;46318;52.716;6.444;2023-03-30T12:56:46;14.70;98.20
60473;DHT22;46318;52.716;6.444;2023-03-30T13:05:01;14.90;97.90
60473;DHT22;46318;52.716;6.444;2023-03-30T13:07:30;15.00;98.20
60473;DHT22;46318;52.716;6.444;2023-03-30T13:10:33;15.00;98.10
60473;DHT22;46318;52.716;6.444;2023-03-30T13:13:00;15.00;96.50
60473;DHT22;46318;52.716;6.444;2023-03-30T13:29:03;15.50;96.50
60473;DHT22;46318;52.716;6.444;2023-03-30T13:31:42;15.50;96.70
60473;DHT22;46318;52.716;6.444;2023-03-30T13:34:28;15.50;97.10
60473;DHT22;46318;52.716;6.444;2023-03-30T13:42:33;15.40;96.90
60473;DHT22;46318;52.716;6.444;2023-03-30T13:45:29;15.40;97.10
60473;DHT22;46318;52.716;6.444;2023-03-30T13:50:35;15.40;97.10
60473;DHT22;46318;52.716;6.444;2023-03-30T13:53:08;15.40;97.20
60473;DHT22;46318;52.716;6.444;2023-03-30T13:55:38;15.50;97.30
60473;DHT22;46318;52.716;6.444;2023-03-30T13:58:33;15.60;97.00
60473;DHT22;46318;52.716;6.444;2023-03-30T14:08:39;16.00;96.10
60473;DHT22;46318;52.716;6.444;2023-03-30T14:11:18;16.00;95.60
60473;DHT22;46318;52.716;6.444;2023-03-30T14:13:48;16.10;95.70
60473;DHT22;46318;52.716;6.444;2023-03-30T14:16:25;16.10;95.60
60473;DHT22;46318;52.716;6.444;2023-03-30T14:19:02;16.00;94.60
60473;DHT22;46318;52.716;6.444;2023-03-30T14:21:46;15.80;95.20
60473;DHT22;46318;52.716;6.444;2023-03-30T14:24:18;15.80;95.60
60473;DHT22;46318;52.716;6.444;2023-03-30T14:26:51;15.70;95.50
60473;DHT22;46318;52.716;6.444;2023-03-30T14:29:19;15.60;95.80
60473;DHT22;46318;52.716;6.444;2023-03-30T14:31:48;15.70;96.20
60473;DHT22;46318;52.716;6.444;2023-03-30T14:34:23;15.60;96.20
60473;DHT22;46318;52.716;6.444;2023-03-30T14:37:02;15.60;96.20
60473;DHT22;46318;52.716;6.444;2023-03-30T14:39:32;15.70;96.50
60473;DHT22;46318;52.716;6.444;2023-03-30T14:42:21;15.70;96.40
60473;DHT22;46318;52.716;6.444;2023-03-30T14:44:51;15.70;95.30
60473;DHT22;46318;52.716;6.444;2023-03-30T14:47:21;15.80;95.90
60473;DHT22;46318;52.716;6.444;2023-03-30T14:49:51;15.80;95.30
60473;DHT22;46318;52.716;6.444;2023-03-30T14:52:29;15.70;95.20
60473;DHT22;46318;52.716;6.444;2023-03-30T14:54:57;15.70;95.30
60473;DHT22;46318;52.716;6.444;2023-03-30T14:57:24;15.70;95.80
60473;DHT22;46318;52.716;6.444;2023-03-30T14:59:54;15.70;95.80
60473;DHT22;46318;52.716;6.444;2023-03-30T15:02:25;15.60;95.60
60473;DHT22;46318;52.716;6.444;2023-03-30T15:04:55;15.60;95.60
60473;DHT22;46318;52.716;6.444;2023-03-30T15:07:21;15.50;96.30
60473;DHT22;46318;52.716;6.444;2023-03-30T15:09:53;15.50;96.00
60473;DHT22;46318;52.716;6.444;2023-03-30T15:12:33;15.50;96.10
60473;DHT22;46318;52.716;6.444;2023-03-30T15:15:04;15.50;96.30
60473;DHT22;46318;52.716;6.444;2023-03-30T15:17:32;15.50;96.20
60473;DHT22;46318;52.716;6.444;2023-03-30T15:20:01;15.50;96.20
60473;DHT22;46318;52.716;6.444;2023-03-30T15:22:34;15.50;96.00
60473;DHT22;46318;52.716;6.444;2023-03-30T15:25:04;15.40;96.30
60473;DHT22;46318;52.716;6.444;2023-03-30T15:27:33;15.50;96.30
60473;DHT22;46318;52.716;6.444;2023-03-30T15:30:00;15.40;96.40
60473;DHT22;46318;52.716;6.444;2023-03-30T15:32:37;15.40;96.40
60473;DHT22;46318;52.716;6.444;2023-03-30T15:37:58;15.30;96.50
60473;DHT22;46318;52.716;6.444;2023-03-30T15:43:24;15.30;96.60
60473;DHT22;46318;52.716;6.444;2023-03-30T15:45:54;15.30;96.30
60473;DHT22;46318;52.716;6.444;2023-03-30T15:48:26;15.30;96.50
60473;DHT22;46318;52.716;6.444;2023-03-30T15:51:01;15.30;96.50
60473;DHT22;46318;52.716;6.444;2023-03-30T15:53:35;15.30;96.30
60473;DHT22;46318;52.716;6.444;2023-03-30T15:56:11;15.20;96.40
60473;DHT22;46318;52.716;6.444;2023-03-30T15:58:42;15.20;96.50
60473;DHT22;46318;52.716;6.444;2023-03-30T16:01:11;15.20;96.90
60473;DHT22;46318;52.716;6.444;2023-03-30T16:03:49;15.20;96.90
60473;DHT22;46318;52.716;6.444;2023-03-30T16:06:20;15.20;96.60
60473;DHT22;46318;52.716;6.444;2023-03-30T16:08:46;15.20;96.70
60473;DHT22;46318;52.716;6.444;2023-03-30T16:11:13;15.10;96.60
60473;DHT22;46318;52.716;6.444;2023-03-30T16:13:47;15.10;96.90
60473;DHT22;46318;52.716;6.444;2023-03-30T16:16:15;15.10;97.00
60473;DHT22;46318;52.716;6.444;2023-03-30T16:18:43;15.00;97.00
60473;DHT22;46318;52.716;6.444;2023-03-30T16:21:09;15.00;97.30
60473;DHT22;46318;52.716;6.444;2023-03-30T16:23:36;15.00;97.40
60473;DHT22;46318;52.716;6.444;2023-03-30T16:26:03;15.00;97.40
60473;DHT22;46318;52.716;6.444;2023-03-30T16:28:29;15.00;97.60
60473;DHT22;46318;52.716;6.444;2023-03-30T16:30:57;15.00;97.70
60473;DHT22;46318;52.716;6.444;2023-03-30T16:33:26;15.00;97.80
60473;DHT22;46318;52.716;6.444;2023-03-30T16:35:52;15.00;97.90
60473;DHT22;46318;52.716;6.444;2023-03-30T16:38:17;15.00;97.80
60473;DHT22;46318;52.716;6.444;2023-03-30T16:40:47;14.90;97.90
60473;DHT22;46318;52.716;6.444;2023-03-30T16:43:15;14.90;98.00
60473;DHT22;46318;52.716;6.444;2023-03-30T16:45:41;14.90;98.30
60473;DHT22;46318;52.716;6.444;2023-03-30T16:48:08;14.80;98.50
60473;DHT22;46318;52.716;6.444;2023-03-30T16:50:49;14.80;98.60
60473;DHT22;46318;52.716;6.444;2023-03-30T16:53:16;14.80;98.80
60473;DHT22;46318;52.716;6.444;2023-03-30T16:55:43;14.80;99.20
60473;DHT22;46318;52.716;6.444;2023-03-30T16:58:12;14.70;99.30
60473;DHT22;46318;52.716;6.444;2023-03-30T17:00:46;14.80;99.30
60473;DHT22;46318;52.716;6.444;2023-03-30T17:03:14;14.80;99.60
60473;DHT22;46318;52.716;6.444;2023-03-30T17:05:41;14.80;99.70
60473;DHT22;46318;52.716;6.444;2023-03-30T17:08:20;14.70;99.80
60473;DHT22;46318;52.716;6.444;2023-03-30T17:10:48;14.70;99.80
60473;DHT22;46318;52.716;6.444;2023-03-30T17:13:15;14.70;99.90
60473;DHT22;46318;52.716;6.444;2023-03-30T17:15:41;14.70;99.90
60473;DHT22;46318;52.716;6.444;2023-03-30T17:18:19;14.60;99.90
60473;DHT22;46318;52.716;6.444;2023-03-30T17:20:52;14.60;99.90
60473;DHT22;46318;52.716;6.444;2023-03-30T17:23:20;14.60;99.90
60473;DHT22;46318;52.716;6.444;2023-03-30T17:25:47;14.60;99.90
60473;DHT22;46318;52.716;6.444;2023-03-30T17:28:23;14.60;99.90
60473;DHT22;46318;52.716;6.444;2023-03-30T17:30:50;14.50;99.90
60473;DHT22;46318;52.716;6.444;2023-03-30T17:33:17;14.50;99.90
60473;DHT22;46318;52.716;6.444;2023-03-30T17:35:46;14.50;99.90
60473;DHT22;46318;52.716;6.444;2023-03-30T17:38:14;14.50;99.90
60473;DHT22;46318;52.716;6.444;2023-03-30T17:40:41;14.40;99.90
60473;DHT22;46318;52.716;6.444;2023-03-30T17:43:08;14.40;99.90
60473;DHT22;46318;52.716;6.444;2023-03-30T17:45:36;14.40;99.90
60473;DHT22;46318;52.716;6.444;2023-03-30T17:48:04;14.30;99.90
60473;DHT22;46318;52.716;6.444;2023-03-30T17:50:33;14.30;99.90
60473;DHT22;46318;52.716;6.444;2023-03-30T17:53:01;14.30;99.90
60473;DHT22;46318;52.716;6.444;2023-03-30T17:55:30;14.30;99.90
60473;DHT22;46318;52.716;6.444;2023-03-30T17:57:58;14.20;99.90
60473;DHT22;46318;52.716;6.444;2023-03-30T18:00:30;14.20;99.90
60473;DHT22;46318;52.716;6.444;2023-03-30T18:02:58;14.20;99.90
60473;DHT22;46318;52.716;6.444;2023-03-30T18:05:30;14.20;99.90
60473;DHT22;46318;52.716;6.444;2023-03-30T18:07:56;14.10;99.90
60473;DHT22;46318;52.716;6.444;2023-03-30T18:10:26;14.10;99.90
60473;DHT22;46318;52.716;6.444;2023-03-30T18:12:55;14.00;99.90
60473;DHT22;46318;52.716;6.444;2023-03-30T18:15:23;14.00;99.90
60473;DHT22;46318;52.716;6.444;2023-03-30T18:17:53;14.00;99.90
60473;DHT22;46318;52.716;6.444;2023-03-30T18:20:27;13.90;99.90
60473;DHT22;46318;52.716;6.444;2023-03-30T18:22:59;13.90;99.90